Time;durP1;ratioP1;P1;durP2;ratioP2;P2;SDS_P1;SDS_P2;PMS_P1;PMS_P2;Temp;Humidity;BMP_temperature;BMP_pressure;BME280_temperature;BME280_humidity;BME280_pressure;Samples;Min_cycle;Max_cycle;Signal;HPM_P1;HPM_P2
2022/07/06 00:00:19;;;;;;;21.83;11.73;;;;;;;30.34;67.88;100691.69;5023393;28;69618;-36
2022/07/06 00:02:50;;;;;;;20.95;12.52;;;;;;;30.20;68.48;100658.47;5039858;28;67677;-38
2022/07/06 00:05:21;;;;;;;22.60;11.15;;;;;;;30.43;68.21;100701.22;5020900;28;69952;-37
2022/07/06 00:07:52;;;;;;;27.52;10.35;;;;;;;30.38;71.77;100687.50;5039437;28;66264;-37
2022/07/06 00:10:23;;;;;;;20.85;9.98;;;;;;;30.38;73.15;100687.50;5039145;28;70251;-37
2022/07/06 00:12:54;;;;;;;19.83;8.85;;;;;;;30.31;73.00;100665.06;5039839;28;66268;-38
2022/07/06 00:15:25;;;;;;;11.82;7.90;;;;;;;30.54;74.53;100688.81;5036305;28;70375;-37
2022/07/06 00:17:56;;;;;;;13.88;8.63;;;;;;;30.58;73.71;100693.56;5039328;28;66300;-37
2022/07/06 00:20:26;;;;;;;11.45;8.32;;;;;;;30.62;75.10;100700.19;5042231;28;70375;-40
2022/07/06 00:22:57;;;;;;;10.27;7.72;;;;;;;30.60;74.30;100696.88;5038310;28;65872;-38
2022/07/06 00:25:28;;;;;;;16.35;7.28;;;;;;;30.69;73.56;100700.94;5035881;28;69812;-40
2022/07/06 00:27:59;;;;;;;14.00;7.43;;;;;;;30.65;73.15;100688.91;5019220;28;65904;-38
2022/07/06 00:30:30;;;;;;;9.00;6.95;;;;;;;30.78;72.62;100706.88;5038952;28;70518;-38
2022/07/06 00:33:01;;;;;;;10.07;6.50;;;;;;;30.79;72.30;100696.91;5037917;28;66527;-37
2022/07/06 00:35:32;;;;;;;7.18;6.07;;;;;;;30.82;72.24;100699.19;5038469;28;70241;-37
2022/07/06 00:38:04;;;;;;;10.30;7.13;;;;;;;30.83;72.54;100700.84;5038190;28;65965;-37
2022/07/06 00:40:35;;;;;;;10.40;6.45;;;;;;;30.85;72.13;100705.00;5038629;28;69197;-37
2022/07/06 00:43:06;;;;;;;10.95;6.85;;;;;;;30.88;71.66;100703.72;5011135;28;66414;-37
2022/07/06 00:45:37;;;;;;;13.48;6.72;;;;;;;30.92;71.91;100713.03;5038417;28;70181;-36
2022/07/06 00:48:08;;;;;;;11.98;6.30;;;;;;;31.01;70.24;100719.84;5044903;28;67893;-36
2022/07/06 00:50:40;;;;;;;10.80;5.68;;;;;;;31.10;68.93;100718.47;5040589;28;70013;-37
2022/07/06 00:53:12;;;;;;;9.73;6.28;;;;;;;31.14;68.96;100711.53;5037950;28;65038;-36
2022/07/06 00:55:44;;;;;;;6.50;5.35;;;;;;;31.21;68.50;100714.19;5036387;28;69026;-36
2022/07/06 00:58:15;;;;;;;7.65;5.97;;;;;;;31.30;68.13;100717.41;5038412;28;66571;-36
2022/07/06 01:00:46;;;;;;;6.90;5.75;;;;;;;31.30;68.31;100703.84;5020176;28;71308;-35
2022/07/06 01:03:17;;;;;;;8.70;5.72;;;;;;;31.34;67.68;100702.34;5019639;28;66154;-36
2022/07/06 01:05:47;;;;;;;5.68;5.18;;;;;;;31.46;67.92;100718.72;5037182;28;69734;-36
2022/07/06 01:08:19;;;;;;;6.60;5.07;;;;;;;31.49;67.12;100721.78;5037651;28;66171;-36
2022/07/06 01:10:50;;;;;;;;;;;;;;;31.20;69.69;100722.53;5015539;28;70370;-36
2022/07/06 01:13:21;;;;;;;5.18;4.63;;;;;;;31.53;67.34;100722.16;5025005;28;66752;-36
2022/07/06 01:15:53;;;;;;;4.78;4.38;;;;;;;31.58;67.10;100714.97;5042612;28;69613;-35
2022/07/06 01:18:25;;;;;;;7.07;5.07;;;;;;;31.59;66.86;100713.94;5025287;28;66251;-36
2022/07/06 01:21:16;;;;;;;5.40;4.88;;;;;;;31.57;67.44;100717.94;5035931;28;69264;-36
2022/07/06 01:23:48;;;;;;;9.13;5.27;;;;;;;31.69;66.55;100715.25;5021430;28;66529;-35
2022/07/06 01:26:21;;;;;;;5.15;4.75;;;;;;;31.34;66.14;100648.97;5025395;28;70134;-36
2022/07/06 01:28:52;;;;;;;6.35;4.57;;;;;;;31.76;65.87;100715.97;5032685;28;66109;-35
2022/07/06 01:31:25;;;;;;;7.47;4.90;;;;;;;31.28;65.74;100630.06;5036525;28;70272;-36
2022/07/06 01:33:59;;;;;;;6.05;4.45;;;;;;;31.81;65.85;100714.22;5039247;28;65083;-35
2022/07/06 01:36:30;;;;;;;5.38;4.88;;;;;;;31.84;65.84;100718.38;5041315;28;69593;-36
2022/07/06 01:39:01;;;;;;;6.18;5.00;;;;;;;31.82;65.82;100712.38;5042797;28;66452;-35
2022/07/06 01:41:32;;;;;;;6.43;4.78;;;;;;;31.90;65.58;100712.06;5041816;28;70578;-36
2022/07/06 01:44:04;;;;;;;5.40;4.32;;;;;;;31.92;65.53;100709.94;5023606;28;65762;-35
2022/07/06 01:46:35;;;;;;;5.03;4.57;;;;;;;31.94;65.50;100713.25;5035938;28;70092;-35
2022/07/06 01:49:06;;;;;;;4.97;4.07;;;;;;;31.89;65.17;100710.38;5021647;28;66280;-34
2022/07/06 01:51:38;;;;;;;4.88;4.38;;;;;;;31.99;65.59;100715.28;5006341;28;70819;-36
2022/07/06 01:54:10;;;;;;;4.93;4.22;;;;;;;31.98;65.10;100709.03;5023145;28;64781;-35
2022/07/06 01:56:42;;;;;;;6.18;3.80;;;;;;;32.03;65.22;100716.47;5023889;28;69875;-35
2022/07/06 01:59:13;;;;;;;5.47;4.13;;;;;;;31.91;64.81;100694.72;5041875;28;66695;-35
2022/07/06 02:01:44;;;;;;;5.63;4.60;;;;;;;32.03;64.78;100711.84;5021533;28;69247;-35
2022/07/06 02:04:15;;;;;;;6.18;3.97;;;;;;;32.09;64.74;100714.69;5040701;28;65502;-37
2022/07/06 02:06:46;;;;;;;5.53;4.43;;;;;;;32.10;64.72;100713.66;5022371;28;70141;-36
2022/07/06 02:09:18;;;;;;;4.97;4.18;;;;;;;32.09;64.44;100698.41;5036734;28;66372;-36
2022/07/06 02:11:49;;;;;;;5.20;4.00;;;;;;;32.15;64.49;100697.47;5024288;28;70410;-35
2022/07/06 02:14:21;;;;;;;4.75;4.20;;;;;;;32.15;64.01;100698.34;5039101;28;66085;-37
2022/07/06 02:16:52;;;;;;;4.60;4.20;;;;;;;32.19;64.10;100695.97;5042687;28;70567;-35
2022/07/06 02:19:23;;;;;;;4.53;3.50;;;;;;;32.17;63.54;100676.38;5041873;28;66065;-35
2022/07/06 02:21:54;;;;;;;3.93;3.53;;;;;;;32.24;63.95;100688.78;5033920;28;69994;-35
2022/07/06 02:24:25;;;;;;;4.70;3.53;;;;;;;32.11;63.81;100652.91;5040889;28;67628;-35
2022/07/06 02:26:56;;;;;;;4.20;3.77;;;;;;;32.24;63.38;100668.97;5023477;28;70059;-35
2022/07/06 02:29:27;;;;;;;4.20;3.00;;;;;;;32.31;63.33;100672.38;5021599;28;67126;-35
2022/07/06 02:31:58;;;;;;;3.28;2.97;;;;;;;32.32;63.58;100675.91;5040776;28;71627;-35
2022/07/06 02:34:30;;;;;;;4.00;3.60;;;;;;;32.35;63.18;100661.91;5022907;28;65606;-35
2022/07/06 02:37:00;;;;;;;5.07;3.92;;;;;;;32.36;63.07;100656.22;5039718;28;70062;-35
2022/07/06 02:39:32;;;;;;;5.53;3.20;;;;;;;32.39;62.88;100654.91;5019522;28;67280;-35
2022/07/06 02:42:04;;;;;;;6.85;3.30;;;;;;;32.41;63.00;100659.06;5040365;28;69894;-35
2022/07/06 02:44:36;;;;;;;4.97;3.42;;;;;;;32.39;62.93;100649.50;5038007;28;65506;-35
2022/07/06 02:47:07;;;;;;;4.32;3.33;;;;;;;32.33;62.63;100640.41;5037636;28;71786;-35
2022/07/06 02:49:38;;;;;;;4.53;3.38;;;;;;;32.33;62.74;100640.41;5020600;28;66393;-35
2022/07/06 02:52:10;;;;;;;5.78;3.33;;;;;;;32.47;62.47;100657.31;5018307;28;70165;-35
2022/07/06 02:54:41;;;;;;;4.32;3.47;;;;;;;32.51;62.53;100654.94;5024160;28;65280;-36
2022/07/06 02:57:12;;;;;;;4.20;3.25;;;;;;;32.54;62.38;100659.91;5021027;28;68960;-36
2022/07/06 02:59:45;;;;;;;3.30;2.65;;;;;;;32.55;62.43;100653.41;5022559;28;65781;-36
2022/07/06 03:02:17;;;;;;;4.85;2.75;;;;;;;32.60;62.57;100653.53;5023023;28;70145;-36
2022/07/06 03:04:48;;;;;;;;;;;;;;;32.28;63.11;100656.56;5022519;28;66113;-36
2022/07/06 03:07:19;;;;;;;4.32;3.63;;;;;;;32.60;62.15;100650.81;5001725;28;69011;-36
2022/07/06 03:09:50;;;;;;;5.57;2.88;;;;;;;32.62;62.17;100654.09;5004334;28;67163;-36
2022/07/06 03:12:21;;;;;;;5.05;3.08;;;;;;;32.63;62.13;100650.34;5020432;28;70552;-35
2022/07/06 03:14:52;;;;;;;3.05;2.85;;;;;;;32.65;61.90;100653.63;5018504;28;66605;-35
2022/07/06 03:17:24;;;;;;;3.88;2.95;;;;;;;32.65;61.95;100659.06;5021852;28;70608;-36
2022/07/06 03:19:55;;;;;;;3.43;3.13;;;;;;;32.68;61.90;100664.00;5019974;28;65830;-35
2022/07/06 03:22:26;;;;;;;5.88;3.40;;;;;;;32.64;61.82;100651.97;5002265;28;69902;-35
2022/07/06 03:24:58;;;;;;;3.27;2.63;;;;;;;32.70;61.73;100656.47;5023724;28;66898;-35
2022/07/06 03:27:28;;;;;;;3.78;2.90;;;;;;;32.70;61.35;100657.28;5039233;28;69627;-36
2022/07/06 03:30:00;;;;;;;5.10;3.33;;;;;;;32.70;61.68;100668.16;5037483;28;66520;-36
2022/07/06 03:32:33;;;;;;;4.18;3.00;;;;;;;32.72;61.69;100665.19;5020131;28;70368;-35
2022/07/06 03:35:07;;;;;;;5.25;3.17;;;;;;;32.74;61.69;100663.09;5037029;28;66509;-35
2022/07/06 03:37:39;;;;;;;6.97;3.30;;;;;;;32.68;61.56;100645.00;5018734;28;70193;-36
2022/07/06 03:40:11;;;;;;;5.55;2.92;;;;;;;32.73;61.64;100653.25;5038288;28;65774;-36
2022/07/06 03:42:42;;;;;;;4.22;3.17;;;;;;;32.73;61.47;100653.25;5001812;28;69040;-36
2022/07/06 03:45:15;;;;;;;3.60;3.30;;;;;;;32.77;61.36;100651.75;5020829;28;66626;-35
2022/07/06 03:47:47;;;;;;;3.72;3.35;;;;;;;32.77;61.39;100640.88;5021329;28;70523;-36
2022/07/06 03:50:18;;;;;;;4.70;3.08;;;;;;;32.79;61.36;100643.34;5035047;28;66028;-36
2022/07/06 03:52:49;;;;;;;5.83;3.70;;;;;;;32.42;61.38;100573.00;5035313;28;70280;-36
2022/07/06 03:55:20;;;;;;;7.38;3.03;;;;;;;32.70;61.25;100610.28;5039224;28;65644;-35
2022/07/06 03:57:57;;;;;;;3.78;3.38;;;;;;;32.87;61.05;100641.06;5037174;28;70184;-35
2022/07/06 04:00:36;;;;;;;4.78;3.10;;;;;;;32.89;61.10;100643.56;5037716;28;65790;-35
2022/07/06 04:03:12;;;;;;;2.97;2.63;;;;;;;32.88;60.87;100636.47;5021037;28;68828;-36
2022/07/06 04:05:48;;;;;;;6.90;2.90;;;;;;;32.90;61.06;100618.88;5020694;28;65667;-35
2022/07/06 04:08:19;;;;;;;2.83;2.45;;;;;;;32.96;60.67;100621.69;5031452;28;69300;-36
2022/07/06 04:10:56;;;;;;;5.38;2.35;;;;;;;32.97;61.13;100615.19;5032770;28;65761;-36
2022/07/06 04:13:27;;;;;;;2.97;2.70;;;;;;;32.90;60.97;100602.56;5038415;28;71232;-36
2022/07/06 04:15:59;;;;;;;4.93;2.65;;;;;;;32.97;60.88;100612.47;5022330;28;65674;-36
2022/07/06 04:18:31;;;;;;;3.58;3.00;;;;;;;33.04;60.83;100615.91;5038141;28;69582;-36
2022/07/06 04:21:02;;;;;;;5.32;3.00;;;;;;;33.00;60.93;100598.44;5039771;28;66162;-36
2022/07/06 04:23:36;;;;;;;4.57;2.72;;;;;;;33.06;60.78;100595.56;5026148;28;70055;-36
2022/07/06 04:26:11;;;;;;;5.10;2.55;;;;;;;33.08;60.61;100595.34;5020503;28;66220;-36
2022/07/06 04:28:43;;;;;;;5.10;2.65;;;;;;;33.12;60.59;100599.22;5017266;28;70208;-37
2022/07/06 04:31:15;;;;;;;8.10;3.10;;;;;;;33.12;60.57;100596.50;5018759;28;66978;-36
2022/07/06 04:33:49;;;;;;;3.70;2.42;;;;;;;33.13;60.53;100584.56;5033900;28;69993;-35
2022/07/06 04:36:20;;;;;;;2.47;2.28;;;;;;;33.19;60.37;100585.50;5013180;28;66141;-35
2022/07/06 04:38:52;;;;;;;2.65;2.42;;;;;;;33.13;60.42;100579.13;5002460;28;70461;-35
2022/07/06 04:41:23;;;;;;;3.77;2.63;;;;;;;33.14;60.52;100580.78;5030866;28;65289;-36
2022/07/06 04:43:55;;;;;;;3.22;2.53;;;;;;;33.25;60.27;100598.91;5018230;28;70033;-36
2022/07/06 04:46:26;;;;;;;3.78;2.72;;;;;;;33.26;60.32;100589.69;5007618;28;65810;-36
2022/07/06 04:48:58;;;;;;;4.10;2.67;;;;;;;33.30;60.34;100584.59;5011620;28;69805;-36
2022/07/06 04:51:32;;;;;;;6.70;3.42;;;;;;;33.32;60.13;100583.31;5017805;28;65581;-35
2022/07/06 04:54:05;;;;;;;3.60;2.45;;;;;;;33.27;59.84;100580.47;5000778;28;70175;-36
2022/07/06 04:56:37;;;;;;;2.70;2.13;;;;;;;33.34;60.16;100575.69;5020213;28;66670;-36
2022/07/06 04:59:08;;;;;;;2.78;2.50;;;;;;;33.36;59.90;100579.00;5029672;28;71034;-36
2022/07/06 05:01:40;;;;;;;3.45;2.35;;;;;;;33.37;59.96;100577.09;5023280;28;66064;-36
2022/07/06 05:04:13;;;;;;;3.25;2.95;;;;;;;33.41;59.87;100586.44;5016226;28;70437;-36
2022/07/06 05:06:45;;;;;;;3.67;1.70;;;;;;;33.43;59.83;100578.03;5014222;28;67371;-36
2022/07/06 05:09:17;;;;;;;2.92;2.45;;;;;;;33.36;59.98;100559.16;5015964;28;69533;-35
2022/07/06 05:11:50;;;;;;;3.85;2.47;;;;;;;33.35;59.68;100554.81;4997993;28;66887;-35
2022/07/06 05:14:21;;;;;;;2.80;2.27;;;;;;;33.43;59.86;100567.16;5018397;28;70283;-36
2022/07/06 05:16:52;;;;;;;2.40;2.00;;;;;;;33.48;59.89;100561.81;5029366;28;65618;-35
2022/07/06 05:19:25;;;;;;;2.58;2.38;;;;;;;33.51;59.61;100553.97;5010248;28;69512;-36
2022/07/06 05:21:57;;;;;;;2.60;2.20;;;;;;;33.53;59.67;100553.78;5017831;28;66072;-36
2022/07/06 05:24:28;;;;;;;3.28;2.30;;;;;;;33.52;59.43;100543.94;5016811;28;71629;-35
2022/07/06 05:26:59;;;;;;;2.83;2.30;;;;;;;33.48;59.50;100531.91;5014016;28;66265;-36
2022/07/06 05:29:30;;;;;;;2.42;2.22;;;;;;;33.55;59.57;100535.31;5019482;28;69196;-36
2022/07/06 05:32:02;;;;;;;5.47;2.53;;;;;;;33.57;59.46;100531.28;5037561;28;65944;-36
2022/07/06 05:34:33;;;;;;;2.33;2.13;;;;;;;33.59;59.38;100534.56;5018792;28;69772;-35
2022/07/06 05:37:04;;;;;;;;;;;;;;;33.29;59.98;100529.41;5016697;28;65625;-36
2022/07/06 05:39:37;;;;;;;2.40;1.90;;;;;;;33.58;59.43;100522.03;5020675;28;70004;-36
2022/07/06 05:42:11;;;;;;;4.40;2.03;;;;;;;33.68;59.33;100515.09;5022082;28;66886;-36
2022/07/06 05:44:43;;;;;;;3.25;1.88;;;;;;;33.67;59.08;100519.72;5019478;28;70132;-36
2022/07/06 05:50:14;;;;;;;2.40;1.83;;;;;;;33.74;59.24;100517.69;5037249;28;69991;-36
2022/07/06 05:53:00;;;;;;;2.58;2.10;;;;;;;32.78;58.82;100368.16;5033830;28;66533;-36
2022/07/06 05:55:41;;;;;;;2.88;1.92;;;;;;;33.79;59.00;100523.19;5036916;28;69595;-35
2022/07/06 05:58:12;;;;;;;;;;;;;;;33.50;59.95;100524.31;5036288;28;66337;-35
2022/07/06 06:00:46;;;;;;;1.88;1.63;;;;;;;33.74;59.34;100520.41;5025043;28;69827;-36
2022/07/06 06:03:20;;;;;;;3.25;2.10;;;;;;;33.85;59.26;100523.25;5020605;28;66089;-36
2022/07/06 06:05:51;;;;;;;2.60;2.13;;;;;;;33.72;58.94;100500.78;5024860;28;69615;-36
2022/07/06 06:08:24;;;;;;;2.15;1.80;;;;;;;33.88;59.08;100525.47;5040117;28;66563;-36
2022/07/06 06:10:57;;;;;;;5.90;2.13;;;;;;;33.88;58.88;100522.75;5038258;28;70191;-35
2022/07/06 06:13:30;;;;;;;2.63;1.85;;;;;;;33.90;58.83;100515.16;5003101;28;66294;-35
2022/07/06 06:16:01;;;;;;;2.60;2.10;;;;;;;33.92;58.76;100504.88;5004881;28;70220;-36
2022/07/06 06:18:32;;;;;;;4.03;1.97;;;;;;;33.83;58.72;100476.44;5022581;28;66421;-36
2022/07/06 06:21:10;;;;;;;3.70;2.00;;;;;;;34.00;58.75;100497.09;5038662;28;70215;-36
2022/07/06 06:23:41;;;;;;;2.50;1.88;;;;;;;34.04;59.00;100497.41;5043215;28;65110;-35
2022/07/06 06:26:12;;;;;;;5.50;1.90;;;;;;;34.07;58.36;100496.94;5043576;28;70371;-37
2022/07/06 06:28:44;;;;;;;2.83;1.90;;;;;;;34.03;58.81;100484.88;5041897;28;65088;-37
2022/07/06 06:31:15;;;;;;;;;;;;;;;33.79;59.33;100484.25;5041520;28;69902;-36
2022/07/06 06:33:46;;;;;;;1.92;1.58;;;;;;;34.04;58.79;100464.75;5042172;28;66620;-36
2022/07/06 06:36:17;;;;;;;2.33;1.63;;;;;;;34.15;58.79;100477.44;5042441;28;69636;-36
2022/07/06 06:38:48;;;;;;;2.43;1.90;;;;;;;34.10;58.49;100462.94;5038500;28;67229;-36
2022/07/06 06:41:24;;;;;;;1.92;1.80;;;;;;;34.22;58.08;100478.09;5038154;28;70231;-35
2022/07/06 06:43:55;;;;;;;5.05;1.70;;;;;;;34.18;58.35;100462.50;5040227;28;65593;-35
2022/07/06 06:46:30;;;;;;;2.65;1.73;;;;;;;34.21;58.12;100465.56;5041284;28;70588;-36
2022/07/06 06:49:01;;;;;;;2.72;1.92;;;;;;;34.15;58.64;100449.41;5040961;28;65997;-36
2022/07/06 06:51:32;;;;;;;2.10;1.85;;;;;;;34.25;58.07;100455.81;5039349;28;69844;-36
2022/07/06 06:54:03;;;;;;;4.28;1.70;;;;;;;34.14;57.92;100426.00;5040947;28;65571;-36
2022/07/06 06:56:34;;;;;;;;;;;;;;;33.99;58.61;100437.47;5042069;28;69961;-35
2022/07/06 06:59:05;;;;;;;7.47;2.10;;;;;;;34.22;58.04;100426.38;5031326;28;66593;-36
2022/07/06 07:01:46;;;;;;;2.25;1.90;;;;;;;34.33;58.04;100440.13;5038127;28;70238;-35
2022/07/06 07:04:24;;;;;;;3.53;1.90;;;;;;;34.34;58.42;100430.84;5040723;28;66318;-36
2022/07/06 07:06:55;;;;;;;2.17;1.98;;;;;;;34.36;57.75;100421.34;5041572;28;70114;-36
2022/07/06 07:09:26;;;;;;;3.28;1.63;;;;;;;34.36;57.78;100426.81;5044874;28;65202;-36
2022/07/06 07:11:58;;;;;;;2.63;2.00;;;;;;;34.48;58.22;100443.00;5036586;28;69843;-36
2022/07/06 07:14:29;;;;;;;7.10;2.60;;;;;;;34.49;57.73;100455.53;5033164;28;66558;-35
2022/07/06 07:16:59;;;;;;;3.80;1.83;;;;;;;34.51;57.87;100453.38;5040611;28;71153;-36
2022/07/06 07:19:30;;;;;;;6.63;1.70;;;;;;;34.53;57.66;100451.22;5034599;28;65625;-36
2022/07/06 07:22:02;;;;;;;3.25;2.30;;;;;;;34.53;58.13;100443.06;5041992;28;69074;-36
2022/07/06 07:24:33;;;;;;;3.23;2.20;;;;;;;34.57;57.48;100446.94;5041014;28;67543;-36
2022/07/06 07:27:05;;;;;;;2.43;2.03;;;;;;;34.58;58.09;100432.25;5039833;28;69169;-36
2022/07/06 07:29:36;;;;;;;5.20;2.00;;;;;;;34.61;57.67;100430.91;5024023;28;65919;-37
2022/07/06 07:32:07;;;;;;;6.23;2.00;;;;;;;34.48;57.70;100422.03;5038390;28;71650;-37
2022/07/06 07:34:38;;;;;;;4.07;2.17;;;;;;;34.56;57.58;100445.28;5038834;28;65463;-36
2022/07/06 07:37:09;;;;;;;6.77;2.33;;;;;;;34.45;57.88;100419.00;5041523;28;68769;-36
2022/07/06 07:39:39;;;;;;;4.35;2.72;;;;;;;34.59;57.79;100439.34;5040159;28;65056;-37
2022/07/06 07:42:10;;;;;;;3.47;2.40;;;;;;;34.59;58.11;100433.06;5018862;28;70172;-36
2022/07/06 07:44:46;;;;;;;9.05;2.70;;;;;;;34.43;58.00;100413.78;5022984;28;66642;-36
2022/07/06 07:47:17;;;;;;;5.38;2.45;;;;;;;34.51;57.96;100426.13;5020131;28;69217;-37
2022/07/06 07:49:48;;;;;;;3.40;2.73;;;;;;;34.51;57.80;100420.69;5041358;28;67408;-35
2022/07/06 07:52:19;;;;;;;3.47;2.40;;;;;;;34.57;58.39;100424.31;5040600;28;69406;-36
2022/07/06 07:54:50;;;;;;;3.37;2.70;;;;;;;34.50;57.93;100423.69;5031892;28;65763;-36
2022/07/06 07:57:41;;;;;;;3.15;2.30;;;;;;;34.55;58.31;100424.56;5039592;28;69997;-36
2022/07/06 08:00:13;;;;;;;3.60;2.33;;;;;;;34.54;58.20;100419.34;5047185;28;66382;-36
2022/07/06 08:02:43;;;;;;;;;;;;;;;34.23;59.12;100408.94;5040732;28;70714;-36
2022/07/06 08:05:15;;;;;;;4.75;2.67;;;;;;;34.50;58.40;100407.34;5023505;28;66861;-36
2022/07/06 08:07:46;;;;;;;7.68;2.53;;;;;;;34.51;58.24;100404.34;5037088;28;70949;-37
2022/07/06 08:10:17;;;;;;;2.80;2.27;;;;;;;34.49;58.20;100395.59;5021171;28;67460;-36
2022/07/06 08:12:48;;;;;;;3.42;2.83;;;;;;;34.49;58.52;100392.88;5039655;28;68877;-36
2022/07/06 08:15:19;;;;;;;3.60;2.57;;;;;;;34.48;58.24;100385.81;5034765;28;68149;-36
2022/07/06 08:17:50;;;;;;;3.70;2.97;;;;;;;34.39;58.42;100360.13;5038564;28;70146;-36
2022/07/06 08:20:22;;;;;;;2.42;2.22;;;;;;;34.25;58.86;100327.84;5037963;28;65429;-36
2022/07/06 08:22:53;;;;;;;7.43;3.03;;;;;;;34.37;58.35;100333.13;5040121;28;70016;-35
2022/07/06 08:25:23;;;;;;;6.90;2.87;;;;;;;34.22;58.47;100314.75;5039430;28;66001;-36
2022/07/06 08:27:54;;;;;;;3.57;3.07;;;;;;;34.39;58.60;100351.97;5036615;28;69628;-36
2022/07/06 08:30:25;;;;;;;6.90;2.40;;;;;;;34.42;58.82;100367.78;5040374;28;65094;-36
2022/07/06 08:32:56;;;;;;;2.88;2.35;;;;;;;34.30;58.73;100356.19;5040423;28;70024;-35
2022/07/06 08:35:36;;;;;;;6.45;2.80;;;;;;;34.41;59.04;100377.03;5036075;28;66531;-36
2022/07/06 08:38:07;;;;;;;2.57;2.37;;;;;;;34.38;59.33;100374.81;5022446;28;70158;-36
2022/07/06 08:40:40;;;;;;;3.10;2.78;;;;;;;34.22;59.00;100358.31;5039485;28;65878;-38
2022/07/06 08:43:14;;;;;;;2.72;2.50;;;;;;;34.19;59.10;100338.97;5037803;28;70099;-36
2022/07/06 08:45:46;;;;;;;4.47;3.20;;;;;;;34.30;59.05;100358.91;5039828;28;66146;-36
2022/07/06 08:48:19;;;;;;;4.72;3.00;;;;;;;33.83;59.01;100284.09;5037773;28;69998;-36
2022/07/06 08:50:50;;;;;;;3.55;2.75;;;;;;;34.34;58.73;100370.97;5036466;28;66571;-36
2022/07/06 08:53:23;;;;;;;3.83;3.00;;;;;;;34.35;59.01;100381.59;5032844;28;69672;-36
2022/07/06 08:55:55;;;;;;;4.22;2.97;;;;;;;33.89;59.46;100293.16;5036549;28;65562;-36
2022/07/06 08:58:27;;;;;;;;;;;;;;;34.02;60.02;100369.78;5039854;28;69741;-35
2022/07/06 09:00:58;;;;;;;4.68;3.13;;;;;;;34.26;59.42;100364.88;5036939;28;65613;-35
2022/07/06 09:03:29;;;;;;;3.10;2.80;;;;;;;34.26;59.60;100359.44;5036673;28;71018;-36
2022/07/06 09:06:03;;;;;;;4.38;3.20;;;;;;;34.29;59.78;100379.06;5038753;28;66410;-36
2022/07/06 09:08:36;;;;;;;6.10;3.20;;;;;;;33.95;59.32;100319.34;5032682;28;69434;-36
2022/07/06 09:11:07;;;;;;;6.13;3.28;;;;;;;34.23;59.35;100370.03;5020817;28;65676;-35
2022/07/06 09:13:39;;;;;;;3.50;3.17;;;;;;;34.26;59.42;100383.94;5039391;28;70494;-37
2022/07/06 09:16:12;;;;;;;5.77;3.47;;;;;;;34.28;59.87;100388.31;5038108;28;66400;-36
2022/07/06 09:19:03;;;;;;;4.63;3.50;;;;;;;34.15;59.72;100373.19;5038327;28;70098;-38
2022/07/06 09:21:37;;;;;;;3.97;3.20;;;;;;;34.14;59.44;100377.81;5039000;28;67850;-35
2022/07/06 09:24:13;;;;;;;6.32;3.88;;;;;;;33.72;59.61;100314.97;5013691;28;70267;-36
2022/07/06 09:26:47;;;;;;;6.82;3.00;;;;;;;34.21;59.63;100400.25;5033792;28;66477;-35
2022/07/06 09:29:18;;;;;;;4.57;3.30;;;;;;;34.25;59.95;100412.25;5039311;28;70643;-35
2022/07/06 09:32:01;;;;;;;5.47;3.97;;;;;;;34.21;59.64;100410.28;5034778;28;66547;-36
2022/07/06 09:34:46;;;;;;;6.95;4.25;;;;;;;34.03;60.09;100400.53;5039026;28;70054;-36
2022/07/06 09:37:17;;;;;;;4.00;3.63;;;;;;;34.22;59.63;100418.19;5035972;28;66195;-37
2022/07/06 09:39:54;;;;;;;6.95;3.90;;;;;;;34.22;60.02;100428.28;5041191;28;70090;-36
2022/07/06 09:42:26;;;;;;;11.38;3.70;;;;;;;34.17;60.10;100415.41;5024766;28;66049;-36
2022/07/06 09:44:57;;;;;;;7.00;3.40;;;;;;;34.12;60.10;100409.91;5027915;28;68658;-36
2022/07/06 09:47:28;;;;;;;6.65;3.80;;;;;;;34.18;60.24;100416.25;5040683;28;66829;-36
2022/07/06 09:50:00;;;;;;;4.63;3.33;;;;;;;34.06;59.95;100410.94;5040206;28;69866;-37
2022/07/06 09:52:35;;;;;;;9.65;3.47;;;;;;;34.16;60.45;100435.56;5031414;28;65798;-36
2022/07/06 09:55:15;;;;;;;3.83;3.53;;;;;;;34.17;60.42;100442.63;5039236;28;69487;-36
2022/07/06 09:57:55;;;;;;;5.05;3.70;;;;;;;34.12;60.33;100445.28;5023185;28;65988;-37
2022/07/06 10:00:26;;;;;;;4.68;3.33;;;;;;;34.09;60.26;100445.81;5036435;28;69822;-36
2022/07/06 10:02:57;;;;;;;10.25;5.45;;;;;;;34.13;60.08;100441.50;5037747;28;66319;-36
2022/07/06 10:05:29;;;;;;;7.50;4.67;;;;;;;34.15;60.28;100439.34;5046342;28;70360;-36
2022/07/06 10:08:01;;;;;;;8.88;4.82;;;;;;;34.14;60.22;100432.25;5022906;28;66368;-37
2022/07/06 10:10:33;;;;;;;11.75;5.20;;;;;;;34.06;60.94;100421.81;5041266;28;69823;-36
2022/07/06 10:13:05;;;;;;;;;;;;;;;33.79;62.13;100436.16;5040120;28;66879;-37
2022/07/06 10:15:38;;;;;;;5.88;5.18;;;;;;;33.73;61.50;100385.44;5041650;28;69916;-37
2022/07/06 10:18:10;;;;;;;5.68;5.18;;;;;;;34.09;60.99;100443.06;5041076;28;66564;-37
2022/07/06 10:20:41;;;;;;;;;;;;;;;33.75;62.14;100437.69;5042747;28;69109;-38
2022/07/06 10:23:13;;;;;;;5.85;4.95;;;;;;;34.06;61.45;100435.41;5041384;28;66032;-37
2022/07/06 10:25:45;;;;;;;6.50;5.03;;;;;;;34.06;61.35;100440.88;5038427;28;70613;-37
2022/07/06 10:28:19;;;;;;;6.53;5.13;;;;;;;33.99;61.21;100434.75;5040708;28;65942;-37
2022/07/06 10:30:51;;;;;;;9.65;5.55;;;;;;;34.00;62.34;100436.41;5039419;28;71366;-37
2022/07/06 10:33:23;;;;;;;9.85;5.75;;;;;;;33.99;63.09;100430.16;5039694;28;67019;-37
2022/07/06 10:35:57;;;;;;;14.18;6.40;;;;;;;33.85;64.33;100423.44;5041279;28;69841;-37
2022/07/06 10:38:34;;;;;;;11.05;6.60;;;;;;;33.33;65.10;100364.75;5022708;28;65150;-38
2022/07/06 10:41:07;;;;;;;13.93;6.43;;;;;;;33.69;65.58;100436.00;5039839;28;69615;-37
2022/07/06 10:43:43;;;;;;;13.35;6.50;;;;;;;33.34;64.93;100385.41;5040527;28;66215;-37
2022/07/06 10:46:20;;;;;;;7.28;6.43;;;;;;;33.64;64.79;100422.31;5038687;28;69429;-36
2022/07/06 10:48:51;;;;;;;10.63;6.65;;;;;;;33.79;64.66;100447.03;4992055;28;65296;-37
2022/07/06 10:51:33;;;;;;;10.43;6.32;;;;;;;33.73;64.46;100448.00;5040841;28;70404;-37
2022/07/06 10:54:05;;;;;;;10.05;6.07;;;;;;;33.86;64.16;100471.31;5037873;28;66213;-37
2022/07/06 10:56:47;;;;;;;6.78;5.63;;;;;;;33.87;64.20;100486.56;5004415;28;69204;-37
2022/07/06 10:59:20;;;;;;;10.00;5.13;;;;;;;33.35;64.07;100399.84;5037600;28;66419;-36
2022/07/06 11:02:13;;;;;;;8.98;5.70;;;;;;;33.80;64.31;100492.19;5037280;28;69261;-37
2022/07/06 11:04:48;;;;;;;9.77;5.97;;;;;;;33.77;63.86;100481.81;5037860;28;66617;-36
2022/07/06 11:07:20;;;;;;;6.85;5.10;;;;;;;33.92;64.05;100511.13;5038669;28;69364;-37
2022/07/06 11:09:56;;;;;;;6.13;4.55;;;;;;;33.84;63.44;100476.19;5035025;28;66517;-38
2022/07/06 11:12:27;;;;;;;7.15;5.43;;;;;;;33.77;64.74;100487.25;5038210;28;69840;-37
2022/07/06 11:15:01;;;;;;;10.33;5.70;;;;;;;33.71;65.51;100501.84;5039235;28;66032;-37
2022/07/06 11:17:32;;;;;;;6.35;5.85;;;;;;;33.62;66.51;100508.75;5039921;28;70380;-37
2022/07/06 11:20:12;;;;;;;8.17;6.17;;;;;;;33.36;66.97;100496.63;5037667;28;67917;-36
2022/07/06 11:22:44;;;;;;;8.35;5.90;;;;;;;33.39;67.04;100517.88;5039322;28;70268;-36
2022/07/06 11:25:16;;;;;;;6.57;5.75;;;;;;;33.23;67.17;100503.19;5040020;28;66128;-36
2022/07/06 11:27:48;;;;;;;6.65;5.25;;;;;;;33.27;67.36;100541.59;5014425;28;69286;-38
2022/07/06 11:30:21;;;;;;;8.10;5.93;;;;;;;33.26;67.51;100550.81;5022376;28;66302;-36
2022/07/06 11:32:52;;;;;;;6.05;5.47;;;;;;;33.20;67.82;100558.06;5015055;28;70416;-36
2022/07/06 11:35:23;;;;;;;7.50;5.20;;;;;;;33.08;68.13;100560.00;5039746;28;65741;-36
2022/07/06 11:37:54;;;;;;;5.60;5.15;;;;;;;33.05;68.32;100557.78;5039944;28;69804;-36
2022/07/06 11:40:25;;;;;;;7.10;5.68;;;;;;;33.09;68.29;100575.22;5037049;28;66319;-35
2022/07/06 11:42:56;;;;;;;5.43;4.93;;;;;;;33.03;68.37;100570.78;5022220;28;68975;-37
2022/07/06 11:45:28;;;;;;;6.22;4.65;;;;;;;32.96;68.57;100573.63;5035595;28;66059;-37
2022/07/06 11:48:12;;;;;;;5.43;4.93;;;;;;;32.87;68.88;100575.88;5020890;28;69855;-36
2022/07/06 11:50:43;;;;;;;7.07;5.53;;;;;;;33.04;68.68;100602.31;5021549;28;66892;-36
2022/07/06 11:53:15;;;;;;;6.45;5.80;;;;;;;33.00;69.14;100606.59;5039621;28;69347;-38